sensor_id;sensor_type;location;lat;lon;timestamp;P1;durP1;ratioP1;P2;durP2;ratioP2
58260;SDS011;44058;52.898;6.502;2023-02-13T00:00:36;23.42;;;13.45;;
58260;SDS011;44058;52.898;6.502;2023-02-13T00:03:07;27.60;;;14.32;;
58260;SDS011;44058;52.898;6.502;2023-02-13T00:05:33;22.42;;;12.93;;
58260;SDS011;44058;52.898;6.502;2023-02-13T00:07:59;21.67;;;13.30;;
58260;SDS011;44058;52.898;6.502;2023-02-13T00:10:26;21.98;;;13.23;;
58260;SDS011;44058;52.898;6.502;2023-02-13T00:12:52;19.35;;;12.55;;
58260;SDS011;44058;52.898;6.502;2023-02-13T00:15:19;22.27;;;13.73;;
58260;SDS011;44058;52.898;6.502;2023-02-13T00:17:45;21.95;;;14.05;;
58260;SDS011;44058;52.898;6.502;2023-02-13T00:20:11;23.13;;;13.40;;
58260;SDS011;44058;52.898;6.502;2023-02-13T00:22:37;21.77;;;13.95;;
58260;SDS011;44058;52.898;6.502;2023-02-13T00:25:07;24.58;;;14.05;;
58260;SDS011;44058;52.898;6.502;2023-02-13T00:27:34;22.70;;;13.98;;
58260;SDS011;44058;52.898;6.502;2023-02-13T00:30:01;22.48;;;14.35;;
58260;SDS011;44058;52.898;6.502;2023-02-13T00:32:27;23.05;;;13.20;;
58260;SDS011;44058;52.898;6.502;2023-02-13T00:34:53;22.15;;;13.80;;
58260;SDS011;44058;52.898;6.502;2023-02-13T00:37:20;23.23;;;14.40;;
58260;SDS011;44058;52.898;6.502;2023-02-13T00:39:46;24.02;;;14.27;;
58260;SDS011;44058;52.898;6.502;2023-02-13T00:42:19;27.10;;;14.68;;
58260;SDS011;44058;52.898;6.502;2023-02-13T00:44:50;23.00;;;14.27;;
58260;SDS011;44058;52.898;6.502;2023-02-13T00:47:17;25.83;;;14.30;;
58260;SDS011;44058;52.898;6.502;2023-02-13T00:49:43;22.40;;;13.60;;
58260;SDS011;44058;52.898;6.502;2023-02-13T00:52:09;21.38;;;13.75;;
58260;SDS011;44058;52.898;6.502;2023-02-13T00:54:35;25.20;;;14.15;;
58260;SDS011;44058;52.898;6.502;2023-02-13T00:57:02;24.20;;;13.93;;
58260;SDS011;44058;52.898;6.502;2023-02-13T00:59:28;24.15;;;14.45;;
58260;SDS011;44058;52.898;6.502;2023-02-13T01:01:54;22.45;;;13.85;;
58260;SDS011;44058;52.898;6.502;2023-02-13T01:04:20;23.13;;;13.88;;
58260;SDS011;44058;52.898;6.502;2023-02-13T01:06:46;24.55;;;14.93;;
58260;SDS011;44058;52.898;6.502;2023-02-13T01:09:12;23.67;;;13.65;;
58260;SDS011;44058;52.898;6.502;2023-02-13T01:11:38;25.67;;;15.88;;
58260;SDS011;44058;52.898;6.502;2023-02-13T01:14:05;26.63;;;14.85;;
58260;SDS011;44058;52.898;6.502;2023-02-13T01:16:31;25.30;;;15.40;;
58260;SDS011;44058;52.898;6.502;2023-02-13T01:19:03;22.65;;;14.43;;
58260;SDS011;44058;52.898;6.502;2023-02-13T01:21:31;24.37;;;14.67;;
58260;SDS011;44058;52.898;6.502;2023-02-13T01:24:01;24.73;;;15.30;;
58260;SDS011;44058;52.898;6.502;2023-02-13T01:26:27;23.77;;;14.88;;
58260;SDS011;44058;52.898;6.502;2023-02-13T01:28:54;26.85;;;14.77;;
58260;SDS011;44058;52.898;6.502;2023-02-13T01:31:22;22.83;;;13.68;;
58260;SDS011;44058;52.898;6.502;2023-02-13T01:33:48;22.85;;;14.35;;
58260;SDS011;44058;52.898;6.502;2023-02-13T01:36:15;21.00;;;13.55;;
58260;SDS011;44058;52.898;6.502;2023-02-13T01:38:44;22.65;;;13.98;;
58260;SDS011;44058;52.898;6.502;2023-02-13T01:41:10;23.75;;;14.35;;
58260;SDS011;44058;52.898;6.502;2023-02-13T01:46:16;23.27;;;14.27;;
58260;SDS011;44058;52.898;6.502;2023-02-13T01:48:44;25.42;;;14.93;;
58260;SDS011;44058;52.898;6.502;2023-02-13T01:51:14;22.02;;;13.88;;
58260;SDS011;44058;52.898;6.502;2023-02-13T01:53:43;23.50;;;14.32;;
58260;SDS011;44058;52.898;6.502;2023-02-13T01:56:18;25.95;;;14.40;;
58260;SDS011;44058;52.898;6.502;2023-02-13T01:58:45;22.05;;;13.73;;
58260;SDS011;44058;52.898;6.502;2023-02-13T02:01:12;25.02;;;13.82;;
58260;SDS011;44058;52.898;6.502;2023-02-13T02:03:58;24.55;;;14.75;;
58260;SDS011;44058;52.898;6.502;2023-02-13T02:06:27;24.40;;;14.63;;
58260;SDS011;44058;52.898;6.502;2023-02-13T02:08:56;24.90;;;14.77;;
58260;SDS011;44058;52.898;6.502;2023-02-13T02:11:26;24.77;;;14.50;;
58260;SDS011;44058;52.898;6.502;2023-02-13T02:13:56;22.63;;;14.07;;
58260;SDS011;44058;52.898;6.502;2023-02-13T02:16:22;24.98;;;14.15;;
58260;SDS011;44058;52.898;6.502;2023-02-13T02:18:50;22.85;;;13.18;;
58260;SDS011;44058;52.898;6.502;2023-02-13T02:39:52;22.33;;;13.05;;
58260;SDS011;44058;52.898;6.502;2023-02-13T02:45:07;22.35;;;13.55;;
58260;SDS011;44058;52.898;6.502;2023-02-13T02:47:51;27.17;;;13.73;;
58260;SDS011;44058;52.898;6.502;2023-02-13T02:50:42;22.42;;;12.73;;
58260;SDS011;44058;52.898;6.502;2023-02-13T02:53:16;28.95;;;15.25;;
58260;SDS011;44058;52.898;6.502;2023-02-13T02:55:59;22.77;;;13.75;;
58260;SDS011;44058;52.898;6.502;2023-02-13T03:01:31;25.20;;;14.80;;
58260;SDS011;44058;52.898;6.502;2023-02-13T03:04:31;24.05;;;13.63;;
58260;SDS011;44058;52.898;6.502;2023-02-13T03:07:17;24.25;;;13.07;;
58260;SDS011;44058;52.898;6.502;2023-02-13T03:09:51;24.73;;;15.45;;
58260;SDS011;44058;52.898;6.502;2023-02-13T03:12:50;25.75;;;14.00;;
58260;SDS011;44058;52.898;6.502;2023-02-13T03:15:37;24.40;;;13.95;;
58260;SDS011;44058;52.898;6.502;2023-02-13T03:18:23;25.52;;;13.73;;
58260;SDS011;44058;52.898;6.502;2023-02-13T03:21:10;23.42;;;12.65;;
58260;SDS011;44058;52.898;6.502;2023-02-13T03:24:02;22.07;;;12.83;;
58260;SDS011;44058;52.898;6.502;2023-02-13T03:29:31;30.75;;;14.48;;
58260;SDS011;44058;52.898;6.502;2023-02-13T03:32:24;22.77;;;12.80;;
58260;SDS011;44058;52.898;6.502;2023-02-13T03:34:56;23.70;;;13.90;;
58260;SDS011;44058;52.898;6.502;2023-02-13T03:37:44;25.92;;;13.57;;
58260;SDS011;44058;52.898;6.502;2023-02-13T03:45:36;21.67;;;12.73;;
58260;SDS011;44058;52.898;6.502;2023-02-13T03:48:34;23.48;;;13.07;;
58260;SDS011;44058;52.898;6.502;2023-02-13T03:51:31;21.58;;;12.77;;
58260;SDS011;44058;52.898;6.502;2023-02-13T03:54:00;24.00;;;13.20;;
58260;SDS011;44058;52.898;6.502;2023-02-13T03:56:30;22.33;;;13.55;;
58260;SDS011;44058;52.898;6.502;2023-02-13T03:59:17;22.42;;;13.35;;
58260;SDS011;44058;52.898;6.502;2023-02-13T04:01:47;23.05;;;13.93;;
58260;SDS011;44058;52.898;6.502;2023-02-13T04:09:10;22.92;;;13.13;;
58260;SDS011;44058;52.898;6.502;2023-02-13T04:11:38;22.02;;;12.73;;
58260;SDS011;44058;52.898;6.502;2023-02-13T04:14:07;23.88;;;13.32;;
58260;SDS011;44058;52.898;6.502;2023-02-13T04:16:38;23.13;;;13.73;;
58260;SDS011;44058;52.898;6.502;2023-02-13T04:19:06;20.05;;;12.18;;
58260;SDS011;44058;52.898;6.502;2023-02-13T04:21:33;22.02;;;13.48;;
58260;SDS011;44058;52.898;6.502;2023-02-13T04:23:59;22.02;;;12.18;;
58260;SDS011;44058;52.898;6.502;2023-02-13T04:26:27;19.42;;;11.27;;
58260;SDS011;44058;52.898;6.502;2023-02-13T04:28:54;19.63;;;11.88;;
58260;SDS011;44058;52.898;6.502;2023-02-13T04:31:20;23.80;;;13.45;;
58260;SDS011;44058;52.898;6.502;2023-02-13T04:33:47;21.60;;;12.23;;
58260;SDS011;44058;52.898;6.502;2023-02-13T04:36:13;22.60;;;12.88;;
58260;SDS011;44058;52.898;6.502;2023-02-13T04:38:39;20.45;;;11.55;;
58260;SDS011;44058;52.898;6.502;2023-02-13T04:41:05;25.45;;;12.85;;
58260;SDS011;44058;52.898;6.502;2023-02-13T04:43:31;22.42;;;12.85;;
58260;SDS011;44058;52.898;6.502;2023-02-13T04:45:57;20.50;;;12.85;;
58260;SDS011;44058;52.898;6.502;2023-02-13T04:48:30;20.50;;;11.95;;
58260;SDS011;44058;52.898;6.502;2023-02-13T04:50:56;21.23;;;13.18;;
58260;SDS011;44058;52.898;6.502;2023-02-13T04:53:23;21.80;;;12.50;;
58260;SDS011;44058;52.898;6.502;2023-02-13T04:55:49;17.08;;;11.35;;
58260;SDS011;44058;52.898;6.502;2023-02-13T04:58:15;21.50;;;11.57;;
58260;SDS011;44058;52.898;6.502;2023-02-13T05:00:41;21.83;;;12.52;;
58260;SDS011;44058;52.898;6.502;2023-02-13T05:03:09;21.30;;;11.10;;
58260;SDS011;44058;52.898;6.502;2023-02-13T05:05:35;19.83;;;11.88;;
58260;SDS011;44058;52.898;6.502;2023-02-13T05:08:02;20.70;;;13.20;;
58260;SDS011;44058;52.898;6.502;2023-02-13T05:10:28;19.58;;;12.13;;
58260;SDS011;44058;52.898;6.502;2023-02-13T05:12:54;21.58;;;12.10;;
58260;SDS011;44058;52.898;6.502;2023-02-13T05:15:21;19.75;;;12.32;;
58260;SDS011;44058;52.898;6.502;2023-02-13T05:17:48;18.10;;;10.60;;
58260;SDS011;44058;52.898;6.502;2023-02-13T05:20:14;17.83;;;11.18;;
58260;SDS011;44058;52.898;6.502;2023-02-13T05:22:44;19.38;;;11.90;;
58260;SDS011;44058;52.898;6.502;2023-02-13T05:25:28;23.10;;;13.10;;
58260;SDS011;44058;52.898;6.502;2023-02-13T05:27:55;21.88;;;11.75;;
58260;SDS011;44058;52.898;6.502;2023-02-13T05:30:21;22.42;;;12.70;;
58260;SDS011;44058;52.898;6.502;2023-02-13T05:32:47;20.50;;;12.45;;
58260;SDS011;44058;52.898;6.502;2023-02-13T05:35:17;21.85;;;12.40;;
58260;SDS011;44058;52.898;6.502;2023-02-13T05:37:43;19.45;;;11.73;;
58260;SDS011;44058;52.898;6.502;2023-02-13T05:40:10;19.50;;;11.68;;
58260;SDS011;44058;52.898;6.502;2023-02-13T05:42:37;19.67;;;12.05;;
58260;SDS011;44058;52.898;6.502;2023-02-13T05:45:04;20.02;;;11.23;;
58260;SDS011;44058;52.898;6.502;2023-02-13T05:47:30;19.05;;;11.55;;
58260;SDS011;44058;52.898;6.502;2023-02-13T05:49:57;19.02;;;11.27;;
58260;SDS011;44058;52.898;6.502;2023-02-13T05:52:23;18.70;;;10.57;;
58260;SDS011;44058;52.898;6.502;2023-02-13T05:54:49;20.45;;;11.27;;
58260;SDS011;44058;52.898;6.502;2023-02-13T05:57:16;19.52;;;10.98;;
58260;SDS011;44058;52.898;6.502;2023-02-13T05:59:42;21.40;;;12.25;;
58260;SDS011;44058;52.898;6.502;2023-02-13T06:02:08;20.38;;;11.60;;
58260;SDS011;44058;52.898;6.502;2023-02-13T06:04:40;20.45;;;11.98;;
58260;SDS011;44058;52.898;6.502;2023-02-13T06:07:07;19.00;;;12.07;;
58260;SDS011;44058;52.898;6.502;2023-02-13T06:09:33;19.25;;;12.18;;
58260;SDS011;44058;52.898;6.502;2023-02-13T06:11:59;19.73;;;12.18;;
58260;SDS011;44058;52.898;6.502;2023-02-13T06:14:25;20.27;;;12.57;;
58260;SDS011;44058;52.898;6.502;2023-02-13T06:16:51;19.83;;;11.90;;
58260;SDS011;44058;52.898;6.502;2023-02-13T06:19:18;19.80;;;11.98;;
58260;SDS011;44058;52.898;6.502;2023-02-13T06:21:44;19.15;;;11.75;;
58260;SDS011;44058;52.898;6.502;2023-02-13T06:24:10;19.10;;;12.32;;
58260;SDS011;44058;52.898;6.502;2023-02-13T06:26:36;20.17;;;12.32;;
58260;SDS011;44058;52.898;6.502;2023-02-13T06:29:02;21.00;;;11.55;;
58260;SDS011;44058;52.898;6.502;2023-02-13T06:31:28;17.00;;;11.00;;
58260;SDS011;44058;52.898;6.502;2023-02-13T06:33:55;17.83;;;11.73;;
58260;SDS011;44058;52.898;6.502;2023-02-13T06:36:22;20.50;;;12.38;;
58260;SDS011;44058;52.898;6.502;2023-02-13T06:38:48;18.67;;;11.57;;
58260;SDS011;44058;52.898;6.502;2023-02-13T06:41:14;18.05;;;11.13;;
58260;SDS011;44058;52.898;6.502;2023-02-13T06:43:41;19.98;;;12.25;;
58260;SDS011;44058;52.898;6.502;2023-02-13T06:46:08;20.60;;;12.88;;
58260;SDS011;44058;52.898;6.502;2023-02-13T06:48:34;21.75;;;12.65;;
58260;SDS011;44058;52.898;6.502;2023-02-13T06:51:01;18.85;;;11.73;;
58260;SDS011;44058;52.898;6.502;2023-02-13T06:53:27;21.45;;;12.55;;
58260;SDS011;44058;52.898;6.502;2023-02-13T06:55:54;21.58;;;12.30;;
58260;SDS011;44058;52.898;6.502;2023-02-13T06:58:22;19.25;;;12.60;;
58260;SDS011;44058;52.898;6.502;2023-02-13T07:00:49;19.10;;;11.98;;
58260;SDS011;44058;52.898;6.502;2023-02-13T07:03:15;18.40;;;11.23;;
58260;SDS011;44058;52.898;6.502;2023-02-13T07:05:42;17.92;;;11.95;;
58260;SDS011;44058;52.898;6.502;2023-02-13T07:08:09;19.70;;;11.05;;
58260;SDS011;44058;52.898;6.502;2023-02-13T07:10:44;18.92;;;12.32;;
58260;SDS011;44058;52.898;6.502;2023-02-13T07:13:12;20.33;;;12.38;;
58260;SDS011;44058;52.898;6.502;2023-02-13T07:15:38;21.75;;;12.02;;
58260;SDS011;44058;52.898;6.502;2023-02-13T07:18:04;19.70;;;12.63;;
58260;SDS011;44058;52.898;6.502;2023-02-13T07:20:31;18.58;;;11.77;;
58260;SDS011;44058;52.898;6.502;2023-02-13T07:23:01;21.73;;;12.50;;
58260;SDS011;44058;52.898;6.502;2023-02-13T07:25:27;18.95;;;12.45;;
58260;SDS011;44058;52.898;6.502;2023-02-13T07:27:54;26.02;;;14.63;;
58260;SDS011;44058;52.898;6.502;2023-02-13T07:30:20;25.95;;;13.63;;
58260;SDS011;44058;52.898;6.502;2023-02-13T07:32:46;24.90;;;15.15;;
58260;SDS011;44058;52.898;6.502;2023-02-13T07:35:12;21.48;;;12.90;;
58260;SDS011;44058;52.898;6.502;2023-02-13T07:37:39;22.08;;;12.88;;
58260;SDS011;44058;52.898;6.502;2023-02-13T07:40:06;20.83;;;12.65;;
58260;SDS011;44058;52.898;6.502;2023-02-13T07:42:32;21.73;;;12.73;;
58260;SDS011;44058;52.898;6.502;2023-02-13T07:44:59;26.67;;;12.40;;
58260;SDS011;44058;52.898;6.502;2023-02-13T07:47:31;21.42;;;12.52;;
58260;SDS011;44058;52.898;6.502;2023-02-13T07:49:58;23.35;;;12.82;;
58260;SDS011;44058;52.898;6.502;2023-02-13T07:52:24;19.75;;;12.60;;
58260;SDS011;44058;52.898;6.502;2023-02-13T07:54:50;22.10;;;12.60;;
58260;SDS011;44058;52.898;6.502;2023-02-13T07:57:16;23.83;;;13.02;;
58260;SDS011;44058;52.898;6.502;2023-02-13T07:59:43;20.70;;;12.45;;
58260;SDS011;44058;52.898;6.502;2023-02-13T08:02:12;22.90;;;12.85;;
58260;SDS011;44058;52.898;6.502;2023-02-13T08:04:39;21.00;;;12.82;;
58260;SDS011;44058;52.898;6.502;2023-02-13T08:07:05;20.90;;;12.82;;
58260;SDS011;44058;52.898;6.502;2023-02-13T08:09:31;21.35;;;12.77;;
58260;SDS011;44058;52.898;6.502;2023-02-13T08:12:16;21.77;;;12.18;;
58260;SDS011;44058;52.898;6.502;2023-02-13T08:14:43;21.58;;;11.98;;
58260;SDS011;44058;52.898;6.502;2023-02-13T08:17:09;19.98;;;12.43;;
58260;SDS011;44058;52.898;6.502;2023-02-13T08:19:35;18.98;;;11.65;;
58260;SDS011;44058;52.898;6.502;2023-02-13T08:22:01;22.60;;;11.98;;
58260;SDS011;44058;52.898;6.502;2023-02-13T08:24:28;20.95;;;12.25;;
58260;SDS011;44058;52.898;6.502;2023-02-13T08:26:54;22.83;;;13.27;;
58260;SDS011;44058;52.898;6.502;2023-02-13T08:29:29;20.10;;;11.55;;
58260;SDS011;44058;52.898;6.502;2023-02-13T08:31:55;20.83;;;11.35;;
58260;SDS011;44058;52.898;6.502;2023-02-13T08:34:21;20.35;;;11.77;;
58260;SDS011;44058;52.898;6.502;2023-02-13T08:36:49;22.83;;;11.65;;
58260;SDS011;44058;52.898;6.502;2023-02-13T08:39:18;26.48;;;13.20;;
58260;SDS011;44058;52.898;6.502;2023-02-13T08:41:44;23.63;;;11.93;;
58260;SDS011;44058;52.898;6.502;2023-02-13T08:44:12;22.00;;;12.38;;
58260;SDS011;44058;52.898;6.502;2023-02-13T08:46:38;20.65;;;12.75;;
58260;SDS011;44058;52.898;6.502;2023-02-13T08:49:16;22.00;;;12.00;;
58260;SDS011;44058;52.898;6.502;2023-02-13T08:51:42;25.15;;;12.35;;
58260;SDS011;44058;52.898;6.502;2023-02-13T08:54:08;19.77;;;11.70;;
58260;SDS011;44058;52.898;6.502;2023-02-13T08:56:34;22.55;;;13.05;;
58260;SDS011;44058;52.898;6.502;2023-02-13T08:59:00;20.92;;;11.73;;
58260;SDS011;44058;52.898;6.502;2023-02-13T09:01:26;21.92;;;12.57;;
58260;SDS011;44058;52.898;6.502;2023-02-13T09:03:53;20.98;;;11.98;;
58260;SDS011;44058;52.898;6.502;2023-02-13T09:06:19;18.95;;;11.38;;
58260;SDS011;44058;52.898;6.502;2023-02-13T09:08:47;18.27;;;11.10;;
58260;SDS011;44058;52.898;6.502;2023-02-13T09:11:13;22.67;;;12.48;;
58260;SDS011;44058;52.898;6.502;2023-02-13T09:13:39;20.67;;;11.80;;
58260;SDS011;44058;52.898;6.502;2023-02-13T09:16:06;21.33;;;12.48;;
58260;SDS011;44058;52.898;6.502;2023-02-13T09:18:33;22.83;;;12.68;;
58260;SDS011;44058;52.898;6.502;2023-02-13T09:21:03;23.00;;;12.55;;
58260;SDS011;44058;52.898;6.502;2023-02-13T09:23:41;20.13;;;11.65;;
58260;SDS011;44058;52.898;6.502;2023-02-13T09:26:09;22.48;;;11.90;;
58260;SDS011;44058;52.898;6.502;2023-02-13T09:28:41;22.83;;;11.93;;
58260;SDS011;44058;52.898;6.502;2023-02-13T09:31:09;21.00;;;11.63;;
58260;SDS011;44058;52.898;6.502;2023-02-13T09:33:35;18.88;;;11.60;;
58260;SDS011;44058;52.898;6.502;2023-02-13T09:36:05;21.63;;;11.95;;
58260;SDS011;44058;52.898;6.502;2023-02-13T09:38:31;21.83;;;12.77;;
58260;SDS011;44058;52.898;6.502;2023-02-13T09:41:06;19.38;;;11.10;;
58260;SDS011;44058;52.898;6.502;2023-02-13T09:43:54;21.95;;;12.38;;
58260;SDS011;44058;52.898;6.502;2023-02-13T09:46:40;21.00;;;12.13;;
58260;SDS011;44058;52.898;6.502;2023-02-13T09:49:14;20.73;;;11.85;;
58260;SDS011;44058;52.898;6.502;2023-02-13T09:51:42;23.75;;;11.82;;
58260;SDS011;44058;52.898;6.502;2023-02-13T09:54:13;21.98;;;11.45;;
58260;SDS011;44058;52.898;6.502;2023-02-13T09:56:59;27.42;;;13.23;;
58260;SDS011;44058;52.898;6.502;2023-02-13T09:59:36;21.27;;;11.88;;
58260;SDS011;44058;52.898;6.502;2023-02-13T10:07:25;23.17;;;12.48;;
58260;SDS011;44058;52.898;6.502;2023-02-13T10:10:06;19.33;;;11.02;;
58260;SDS011;44058;52.898;6.502;2023-02-13T10:15:14;22.10;;;11.65;;
58260;SDS011;44058;52.898;6.502;2023-02-13T10:17:43;19.42;;;11.48;;
58260;SDS011;44058;52.898;6.502;2023-02-13T10:20:24;20.88;;;11.20;;
58260;SDS011;44058;52.898;6.502;2023-02-13T10:23:07;21.38;;;12.02;;
58260;SDS011;44058;52.898;6.502;2023-02-13T10:25:47;23.42;;;12.82;;
58260;SDS011;44058;52.898;6.502;2023-02-13T10:28:16;18.70;;;10.80;;
58260;SDS011;44058;52.898;6.502;2023-02-13T10:30:52;25.77;;;13.45;;
58260;SDS011;44058;52.898;6.502;2023-02-13T10:43:33;20.92;;;12.02;;
58260;SDS011;44058;52.898;6.502;2023-02-13T10:48:37;24.60;;;12.85;;
58260;SDS011;44058;52.898;6.502;2023-02-13T10:51:11;20.77;;;11.60;;
58260;SDS011;44058;52.898;6.502;2023-02-13T10:53:43;21.70;;;12.40;;
58260;SDS011;44058;52.898;6.502;2023-02-13T10:58:59;21.63;;;12.20;;
58260;SDS011;44058;52.898;6.502;2023-02-13T11:01:42;21.85;;;13.07;;
58260;SDS011;44058;52.898;6.502;2023-02-13T11:04:17;22.20;;;12.60;;
58260;SDS011;44058;52.898;6.502;2023-02-13T11:06:54;24.10;;;12.50;;
58260;SDS011;44058;52.898;6.502;2023-02-13T11:09:20;25.05;;;12.65;;
58260;SDS011;44058;52.898;6.502;2023-02-13T11:11:46;24.10;;;13.35;;
58260;SDS011;44058;52.898;6.502;2023-02-13T11:14:20;20.77;;;12.05;;
58260;SDS011;44058;52.898;6.502;2023-02-13T11:17:00;23.63;;;13.25;;
58260;SDS011;44058;52.898;6.502;2023-02-13T11:24:23;22.60;;;12.85;;
58260;SDS011;44058;52.898;6.502;2023-02-13T11:26:51;21.17;;;12.88;;
58260;SDS011;44058;52.898;6.502;2023-02-13T11:29:36;22.10;;;13.10;;
58260;SDS011;44058;52.898;6.502;2023-02-13T11:34:32;21.70;;;12.23;;
58260;SDS011;44058;52.898;6.502;2023-02-13T11:39:37;23.92;;;14.15;;
58260;SDS011;44058;52.898;6.502;2023-02-13T11:42:11;21.30;;;12.68;;
58260;SDS011;44058;52.898;6.502;2023-02-13T11:44:38;20.48;;;12.93;;
58260;SDS011;44058;52.898;6.502;2023-02-13T11:47:05;24.75;;;13.90;;
58260;SDS011;44058;52.898;6.502;2023-02-13T11:49:38;22.88;;;12.85;;
58260;SDS011;44058;52.898;6.502;2023-02-13T11:52:31;24.48;;;13.90;;
58260;SDS011;44058;52.898;6.502;2023-02-13T11:55:00;21.40;;;13.40;;
58260;SDS011;44058;52.898;6.502;2023-02-13T11:57:29;24.17;;;14.43;;
58260;SDS011;44058;52.898;6.502;2023-02-13T11:59:56;21.75;;;12.77;;
58260;SDS011;44058;52.898;6.502;2023-02-13T12:02:29;18.90;;;12.35;;
58260;SDS011;44058;52.898;6.502;2023-02-13T12:07:40;22.35;;;13.98;;
58260;SDS011;44058;52.898;6.502;2023-02-13T12:10:23;26.33;;;14.38;;
58260;SDS011;44058;52.898;6.502;2023-02-13T12:15:29;20.23;;;13.75;;
58260;SDS011;44058;52.898;6.502;2023-02-13T12:23:13;25.20;;;15.98;;
58260;SDS011;44058;52.898;6.502;2023-02-13T12:25:51;24.25;;;15.98;;
58260;SDS011;44058;52.898;6.502;2023-02-13T12:28:20;22.10;;;14.35;;
58260;SDS011;44058;52.898;6.502;2023-02-13T12:36:01;22.95;;;16.13;;
58260;SDS011;44058;52.898;6.502;2023-02-13T12:41:30;21.90;;;15.65;;
58260;SDS011;44058;52.898;6.502;2023-02-13T12:52:16;23.00;;;15.63;;
58260;SDS011;44058;52.898;6.502;2023-02-13T12:54:57;26.73;;;16.45;;
58260;SDS011;44058;52.898;6.502;2023-02-13T12:57:35;21.77;;;15.85;;
58260;SDS011;44058;52.898;6.502;2023-02-13T13:07:49;19.88;;;15.10;;
58260;SDS011;44058;52.898;6.502;2023-02-13T13:23:44;21.65;;;16.38;;
58260;SDS011;44058;52.898;6.502;2023-02-13T13:26:14;21.75;;;15.70;;
58260;SDS011;44058;52.898;6.502;2023-02-13T13:28:46;23.70;;;17.20;;
58260;SDS011;44058;52.898;6.502;2023-02-13T13:31:13;21.45;;;16.55;;
58260;SDS011;44058;52.898;6.502;2023-02-13T13:33:41;20.65;;;16.00;;
58260;SDS011;44058;52.898;6.502;2023-02-13T13:36:20;18.85;;;15.77;;
58260;SDS011;44058;52.898;6.502;2023-02-13T13:49:28;22.80;;;18.77;;
58260;SDS011;44058;52.898;6.502;2023-02-13T13:54:42;22.60;;;17.50;;
58260;SDS011;44058;52.898;6.502;2023-02-13T13:57:10;23.27;;;18.25;;
58260;SDS011;44058;52.898;6.502;2023-02-13T14:02:25;23.38;;;17.65;;
58260;SDS011;44058;52.898;6.502;2023-02-13T14:07:36;24.75;;;18.67;;
58260;SDS011;44058;52.898;6.502;2023-02-13T14:10:03;25.33;;;19.45;;
58260;SDS011;44058;52.898;6.502;2023-02-13T14:14:55;23.00;;;18.70;;
58260;SDS011;44058;52.898;6.502;2023-02-13T14:21:06;24.08;;;18.40;;
58260;SDS011;44058;52.898;6.502;2023-02-13T14:23:05;25.02;;;19.23;;
58260;SDS011;44058;52.898;6.502;2023-02-13T14:25:32;25.23;;;19.20;;
58260;SDS011;44058;52.898;6.502;2023-02-13T14:27:58;27.50;;;20.25;;
58260;SDS011;44058;52.898;6.502;2023-02-13T14:30:32;22.73;;;18.95;;
58260;SDS011;44058;52.898;6.502;2023-02-13T14:33:00;24.70;;;19.38;;
58260;SDS011;44058;52.898;6.502;2023-02-13T14:35:30;24.15;;;18.40;;
58260;SDS011;44058;52.898;6.502;2023-02-13T14:37:57;25.25;;;19.48;;
58260;SDS011;44058;52.898;6.502;2023-02-13T14:40:32;23.80;;;19.02;;
58260;SDS011;44058;52.898;6.502;2023-02-13T14:43:16;21.75;;;17.90;;
58260;SDS011;44058;52.898;6.502;2023-02-13T14:45:46;23.98;;;18.58;;
58260;SDS011;44058;52.898;6.502;2023-02-13T14:48:13;21.55;;;18.38;;
58260;SDS011;44058;52.898;6.502;2023-02-13T14:50:48;23.75;;;19.02;;
58260;SDS011;44058;52.898;6.502;2023-02-13T14:53:29;24.42;;;19.08;;
58260;SDS011;44058;52.898;6.502;2023-02-13T14:56:02;23.95;;;19.25;;
58260;SDS011;44058;52.898;6.502;2023-02-13T14:58:32;24.00;;;19.70;;
58260;SDS011;44058;52.898;6.502;2023-02-13T15:05:53;25.23;;;19.75;;
58260;SDS011;44058;52.898;6.502;2023-02-13T15:08:23;23.70;;;19.33;;
58260;SDS011;44058;52.898;6.502;2023-02-13T15:13:21;24.98;;;19.80;;
58260;SDS011;44058;52.898;6.502;2023-02-13T15:15:52;21.25;;;18.95;;
58260;SDS011;44058;52.898;6.502;2023-02-13T15:18:20;23.27;;;18.63;;
58260;SDS011;44058;52.898;6.502;2023-02-13T15:20:47;25.20;;;17.80;;
58260;SDS011;44058;52.898;6.502;2023-02-13T15:23:23;24.73;;;19.25;;
58260;SDS011;44058;52.898;6.502;2023-02-13T15:26:00;21.88;;;18.10;;
58260;SDS011;44058;52.898;6.502;2023-02-13T15:28:27;24.67;;;19.23;;
58260;SDS011;44058;52.898;6.502;2023-02-13T15:33:23;21.48;;;18.52;;
58260;SDS011;44058;52.898;6.502;2023-02-13T15:35:53;27.83;;;18.35;;
58260;SDS011;44058;52.898;6.502;2023-02-13T15:38:23;20.20;;;17.60;;
58260;SDS011;44058;52.898;6.502;2023-02-13T15:40:49;22.48;;;17.30;;
58260;SDS011;44058;52.898;6.502;2023-02-13T15:43:24;21.05;;;17.40;;
58260;SDS011;44058;52.898;6.502;2023-02-13T15:45:53;21.05;;;17.17;;
58260;SDS011;44058;52.898;6.502;2023-02-13T15:48:20;19.02;;;16.40;;
58260;SDS011;44058;52.898;6.502;2023-02-13T15:50:46;21.17;;;17.90;;
58260;SDS011;44058;52.898;6.502;2023-02-13T15:53:14;20.33;;;17.15;;
58260;SDS011;44058;52.898;6.502;2023-02-13T15:55:53;19.85;;;17.15;;
58260;SDS011;44058;52.898;6.502;2023-02-13T15:58:20;19.63;;;16.45;;
58260;SDS011;44058;52.898;6.502;2023-02-13T16:00:46;18.23;;;15.48;;
58260;SDS011;44058;52.898;6.502;2023-02-13T16:03:13;19.85;;;17.38;;
58260;SDS011;44058;52.898;6.502;2023-02-13T16:05:40;20.77;;;17.33;;
58260;SDS011;44058;52.898;6.502;2023-02-13T16:11:07;20.85;;;17.27;;
58260;SDS011;44058;52.898;6.502;2023-02-13T16:13:33;21.13;;;16.52;;
58260;SDS011;44058;52.898;6.502;2023-02-13T16:15:59;22.20;;;18.05;;
58260;SDS011;44058;52.898;6.502;2023-02-13T16:18:26;21.58;;;16.88;;
58260;SDS011;44058;52.898;6.502;2023-02-13T16:20:53;23.45;;;17.75;;
58260;SDS011;44058;52.898;6.502;2023-02-13T16:23:19;20.85;;;17.48;;
58260;SDS011;44058;52.898;6.502;2023-02-13T16:25:46;22.35;;;16.98;;
58260;SDS011;44058;52.898;6.502;2023-02-13T16:28:16;21.77;;;17.50;;
58260;SDS011;44058;52.898;6.502;2023-02-13T16:30:50;22.13;;;16.67;;
58260;SDS011;44058;52.898;6.502;2023-02-13T16:33:21;21.60;;;17.45;;
58260;SDS011;44058;52.898;6.502;2023-02-13T16:40:46;22.45;;;17.67;;
58260;SDS011;44058;52.898;6.502;2023-02-13T16:48:43;21.92;;;17.50;;
58260;SDS011;44058;52.898;6.502;2023-02-13T16:51:10;20.75;;;16.42;;
58260;SDS011;44058;52.898;6.502;2023-02-13T16:53:36;20.13;;;16.75;;
58260;SDS011;44058;52.898;6.502;2023-02-13T16:56:06;21.20;;;17.05;;
58260;SDS011;44058;52.898;6.502;2023-02-13T16:58:33;22.10;;;17.05;;
58260;SDS011;44058;52.898;6.502;2023-02-13T17:00:59;20.92;;;16.98;;
58260;SDS011;44058;52.898;6.502;2023-02-13T17:03:26;20.70;;;17.17;;
58260;SDS011;44058;52.898;6.502;2023-02-13T17:05:52;21.35;;;17.52;;
58260;SDS011;44058;52.898;6.502;2023-02-13T17:08:21;22.08;;;16.67;;
58260;SDS011;44058;52.898;6.502;2023-02-13T17:10:59;21.50;;;16.83;;
58260;SDS011;44058;52.898;6.502;2023-02-13T17:13:26;19.27;;;15.88;;
58260;SDS011;44058;52.898;6.502;2023-02-13T17:15:52;20.02;;;15.20;;
58260;SDS011;44058;52.898;6.502;2023-02-13T17:18:19;18.95;;;15.43;;
58260;SDS011;44058;52.898;6.502;2023-02-13T17:20:45;22.70;;;16.23;;
58260;SDS011;44058;52.898;6.502;2023-02-13T17:23:21;20.33;;;15.80;;
58260;SDS011;44058;52.898;6.502;2023-02-13T17:25:48;19.40;;;15.98;;